Balmorhea, Texas
Current Conditions -  °F | °C
As of 12:55 PM on Sunday 23 Nov 2014 (Local Time) from KPEQ Reporting Station
Clear Clear  
Wind Chill: 70°   Ceiling: Unl
Heat Index: 70°   Visibility: 10mi
Dew Point: 28°   Wind: 36mph
Humidity: 21%   Direction: 280°W
Pressure: 29.73"   Gusts: 41mph
Location:  30.98°N, 103.74°W
Report Text: KPEQ 231855Z AUTO 28031G36KT 10SM CLR 21/M02 A2973 RMK AO2 T02091025
Loading
Personal Weather Stations






























Interactive Weather Map New forecast layout! Learn more

10-Day Weather Forecast

Advertisements
Track Severe Weather on mobile